sensor_id;sensor_type;location;lat;lon;timestamp;P1;durP1;ratioP1;P2;durP2;ratioP2
7029;SDS011;3556;53.500;10.176;2022-12-24T00:00:30;34.43;;;15.17;;
7029;SDS011;3556;53.500;10.176;2022-12-24T00:02:56;32.30;;;14.80;;
7029;SDS011;3556;53.500;10.176;2022-12-24T00:05:21;38.07;;;14.73;;
7029;SDS011;3556;53.500;10.176;2022-12-24T00:07:47;34.30;;;15.97;;
7029;SDS011;3556;53.500;10.176;2022-12-24T00:10:12;38.93;;;16.13;;
7029;SDS011;3556;53.500;10.176;2022-12-24T00:12:38;33.57;;;14.80;;
7029;SDS011;3556;53.500;10.176;2022-12-24T00:15:04;32.50;;;14.93;;
7029;SDS011;3556;53.500;10.176;2022-12-24T00:17:30;37.03;;;14.67;;
7029;SDS011;3556;53.500;10.176;2022-12-24T00:19:56;37.27;;;15.30;;
7029;SDS011;3556;53.500;10.176;2022-12-24T00:22:21;35.30;;;15.40;;
7029;SDS011;3556;53.500;10.176;2022-12-24T00:24:47;31.80;;;15.20;;
7029;SDS011;3556;53.500;10.176;2022-12-24T00:27:13;31.87;;;14.83;;
7029;SDS011;3556;53.500;10.176;2022-12-24T00:29:38;38.40;;;15.80;;
7029;SDS011;3556;53.500;10.176;2022-12-24T00:32:04;34.83;;;15.27;;
7029;SDS011;3556;53.500;10.176;2022-12-24T00:34:34;30.60;;;14.77;;
7029;SDS011;3556;53.500;10.176;2022-12-24T00:37:02;32.77;;;14.93;;
7029;SDS011;3556;53.500;10.176;2022-12-24T00:39:29;34.70;;;15.10;;
7029;SDS011;3556;53.500;10.176;2022-12-24T00:41:54;32.03;;;14.70;;
7029;SDS011;3556;53.500;10.176;2022-12-24T00:44:20;36.80;;;14.70;;
7029;SDS011;3556;53.500;10.176;2022-12-24T00:46:46;33.47;;;14.80;;
7029;SDS011;3556;53.500;10.176;2022-12-24T00:49:12;49.97;;;16.60;;
7029;SDS011;3556;53.500;10.176;2022-12-24T00:51:37;40.20;;;15.00;;
7029;SDS011;3556;53.500;10.176;2022-12-24T00:54:03;33.43;;;14.70;;
7029;SDS011;3556;53.500;10.176;2022-12-24T00:56:29;36.10;;;14.60;;
7029;SDS011;3556;53.500;10.176;2022-12-24T00:58:55;31.37;;;15.13;;
7029;SDS011;3556;53.500;10.176;2022-12-24T01:01:21;33.60;;;15.10;;
7029;SDS011;3556;53.500;10.176;2022-12-24T01:03:48;33.53;;;13.97;;
7029;SDS011;3556;53.500;10.176;2022-12-24T01:06:16;39.80;;;15.67;;
7029;SDS011;3556;53.500;10.176;2022-12-24T01:08:43;44.00;;;16.53;;
7029;SDS011;3556;53.500;10.176;2022-12-24T01:11:09;38.07;;;14.70;;
7029;SDS011;3556;53.500;10.176;2022-12-24T01:13:36;31.30;;;14.03;;
7029;SDS011;3556;53.500;10.176;2022-12-24T01:16:02;36.17;;;14.80;;
7029;SDS011;3556;53.500;10.176;2022-12-24T01:18:37;35.93;;;15.27;;
7029;SDS011;3556;53.500;10.176;2022-12-24T01:21:03;41.07;;;16.17;;
7029;SDS011;3556;53.500;10.176;2022-12-24T01:23:29;34.23;;;15.13;;
7029;SDS011;3556;53.500;10.176;2022-12-24T01:25:59;36.93;;;15.77;;
7029;SDS011;3556;53.500;10.176;2022-12-24T01:28:25;39.97;;;15.77;;
7029;SDS011;3556;53.500;10.176;2022-12-24T01:30:51;39.83;;;16.43;;
7029;SDS011;3556;53.500;10.176;2022-12-24T01:33:17;39.90;;;15.53;;
7029;SDS011;3556;53.500;10.176;2022-12-24T01:35:43;45.13;;;15.90;;
7029;SDS011;3556;53.500;10.176;2022-12-24T01:38:09;39.80;;;14.80;;
7029;SDS011;3556;53.500;10.176;2022-12-24T01:40:36;43.77;;;15.80;;
7029;SDS011;3556;53.500;10.176;2022-12-24T01:43:25;41.23;;;16.47;;
7029;SDS011;3556;53.500;10.176;2022-12-24T01:46:03;42.43;;;17.00;;
7029;SDS011;3556;53.500;10.176;2022-12-24T01:48:44;37.63;;;15.90;;
7029;SDS011;3556;53.500;10.176;2022-12-24T01:56:31;43.50;;;17.10;;
7029;SDS011;3556;53.500;10.176;2022-12-24T01:58:59;47.23;;;17.20;;
7029;SDS011;3556;53.500;10.176;2022-12-24T02:01:32;37.90;;;15.70;;
7029;SDS011;3556;53.500;10.176;2022-12-24T02:03:58;38.30;;;16.57;;
7029;SDS011;3556;53.500;10.176;2022-12-24T02:06:26;42.63;;;16.23;;
7029;SDS011;3556;53.500;10.176;2022-12-24T02:08:51;43.97;;;16.60;;
7029;SDS011;3556;53.500;10.176;2022-12-24T02:11:19;43.87;;;17.23;;
7029;SDS011;3556;53.500;10.176;2022-12-24T02:13:50;44.37;;;16.80;;
7029;SDS011;3556;53.500;10.176;2022-12-24T02:24:44;45.50;;;16.63;;
7029;SDS011;3556;53.500;10.176;2022-12-24T02:27:27;44.70;;;17.07;;
7029;SDS011;3556;53.500;10.176;2022-12-24T02:30:13;45.33;;;16.67;;
7029;SDS011;3556;53.500;10.176;2022-12-24T02:35:23;37.93;;;16.10;;
7029;SDS011;3556;53.500;10.176;2022-12-24T02:40:56;46.20;;;16.70;;
7029;SDS011;3556;53.500;10.176;2022-12-24T02:43:28;40.80;;;16.63;;
7029;SDS011;3556;53.500;10.176;2022-12-24T02:46:00;49.37;;;16.80;;
7029;SDS011;3556;53.500;10.176;2022-12-24T02:48:40;37.03;;;15.30;;
7029;SDS011;3556;53.500;10.176;2022-12-24T02:51:08;35.20;;;14.17;;
7029;SDS011;3556;53.500;10.176;2022-12-24T02:53:34;43.40;;;14.97;;
7029;SDS011;3556;53.500;10.176;2022-12-24T03:07:13;31.93;;;13.43;;
7029;SDS011;3556;53.500;10.176;2022-12-24T03:12:27;41.17;;;14.40;;
7029;SDS011;3556;53.500;10.176;2022-12-24T03:14:57;36.63;;;14.40;;
7029;SDS011;3556;53.500;10.176;2022-12-24T03:17:24;30.33;;;12.70;;
7029;SDS011;3556;53.500;10.176;2022-12-24T03:19:50;33.63;;;13.07;;
7029;SDS011;3556;53.500;10.176;2022-12-24T03:22:18;29.50;;;11.93;;
7029;SDS011;3556;53.500;10.176;2022-12-24T03:24:46;28.50;;;12.73;;
7029;SDS011;3556;53.500;10.176;2022-12-24T03:27:12;35.17;;;13.43;;
7029;SDS011;3556;53.500;10.176;2022-12-24T03:29:39;29.87;;;13.40;;
7029;SDS011;3556;53.500;10.176;2022-12-24T03:32:05;25.50;;;12.07;;
7029;SDS011;3556;53.500;10.176;2022-12-24T03:34:31;29.10;;;12.43;;
7029;SDS011;3556;53.500;10.176;2022-12-24T03:36:57;27.83;;;12.63;;
7029;SDS011;3556;53.500;10.176;2022-12-24T03:39:23;35.07;;;12.77;;
7029;SDS011;3556;53.500;10.176;2022-12-24T03:41:49;28.27;;;12.17;;
7029;SDS011;3556;53.500;10.176;2022-12-24T03:44:14;32.33;;;13.20;;
7029;SDS011;3556;53.500;10.176;2022-12-24T03:46:40;37.13;;;12.40;;
7029;SDS011;3556;53.500;10.176;2022-12-24T03:49:05;23.60;;;11.83;;
7029;SDS011;3556;53.500;10.176;2022-12-24T03:51:31;23.60;;;10.93;;
7029;SDS011;3556;53.500;10.176;2022-12-24T03:53:57;28.87;;;12.03;;
7029;SDS011;3556;53.500;10.176;2022-12-24T03:56:24;29.80;;;12.50;;
7029;SDS011;3556;53.500;10.176;2022-12-24T03:58:50;29.47;;;12.20;;
7029;SDS011;3556;53.500;10.176;2022-12-24T04:01:16;32.37;;;12.13;;
7029;SDS011;3556;53.500;10.176;2022-12-24T04:03:42;27.13;;;10.67;;
7029;SDS011;3556;53.500;10.176;2022-12-24T04:06:10;22.70;;;12.10;;
7029;SDS011;3556;53.500;10.176;2022-12-24T04:08:37;24.80;;;11.60;;
7029;SDS011;3556;53.500;10.176;2022-12-24T04:11:03;26.17;;;11.60;;
7029;SDS011;3556;53.500;10.176;2022-12-24T04:13:31;26.43;;;11.87;;
7029;SDS011;3556;53.500;10.176;2022-12-24T04:16:00;20.77;;;10.80;;
7029;SDS011;3556;53.500;10.176;2022-12-24T04:18:28;22.80;;;11.27;;
7029;SDS011;3556;53.500;10.176;2022-12-24T04:20:55;23.73;;;10.90;;
7029;SDS011;3556;53.500;10.176;2022-12-24T04:23:21;18.20;;;9.90;;
7029;SDS011;3556;53.500;10.176;2022-12-24T04:25:47;22.17;;;11.00;;
7029;SDS011;3556;53.500;10.176;2022-12-24T04:28:13;23.07;;;11.20;;
7029;SDS011;3556;53.500;10.176;2022-12-24T04:30:39;23.33;;;10.90;;
7029;SDS011;3556;53.500;10.176;2022-12-24T04:33:05;28.10;;;11.67;;
7029;SDS011;3556;53.500;10.176;2022-12-24T04:35:31;23.37;;;11.17;;
7029;SDS011;3556;53.500;10.176;2022-12-24T04:37:57;29.30;;;11.47;;
7029;SDS011;3556;53.500;10.176;2022-12-24T04:40:23;20.63;;;10.23;;
7029;SDS011;3556;53.500;10.176;2022-12-24T04:42:49;27.27;;;10.70;;
7029;SDS011;3556;53.500;10.176;2022-12-24T04:45:16;22.67;;;11.60;;
7029;SDS011;3556;53.500;10.176;2022-12-24T04:47:42;26.00;;;11.30;;
7029;SDS011;3556;53.500;10.176;2022-12-24T04:50:08;22.90;;;11.20;;
7029;SDS011;3556;53.500;10.176;2022-12-24T04:52:34;27.83;;;11.73;;
7029;SDS011;3556;53.500;10.176;2022-12-24T04:55:00;27.80;;;12.43;;
7029;SDS011;3556;53.500;10.176;2022-12-24T04:57:25;25.60;;;12.10;;
7029;SDS011;3556;53.500;10.176;2022-12-24T04:59:51;26.10;;;11.20;;
7029;SDS011;3556;53.500;10.176;2022-12-24T05:02:17;28.33;;;12.60;;
7029;SDS011;3556;53.500;10.176;2022-12-24T05:04:42;23.23;;;9.67;;
7029;SDS011;3556;53.500;10.176;2022-12-24T05:07:08;27.40;;;11.70;;
7029;SDS011;3556;53.500;10.176;2022-12-24T05:09:33;26.10;;;11.87;;
7029;SDS011;3556;53.500;10.176;2022-12-24T05:11:59;26.93;;;12.10;;
7029;SDS011;3556;53.500;10.176;2022-12-24T05:14:25;25.33;;;11.70;;
7029;SDS011;3556;53.500;10.176;2022-12-24T05:16:50;25.63;;;11.00;;
7029;SDS011;3556;53.500;10.176;2022-12-24T05:19:16;23.77;;;11.17;;
7029;SDS011;3556;53.500;10.176;2022-12-24T05:21:42;22.93;;;11.57;;
7029;SDS011;3556;53.500;10.176;2022-12-24T05:24:09;26.63;;;11.30;;
7029;SDS011;3556;53.500;10.176;2022-12-24T05:26:54;24.20;;;11.00;;
7029;SDS011;3556;53.500;10.176;2022-12-24T05:29:21;23.83;;;10.20;;
7029;SDS011;3556;53.500;10.176;2022-12-24T05:31:47;19.47;;;10.07;;
7029;SDS011;3556;53.500;10.176;2022-12-24T05:34:13;22.33;;;10.70;;
7029;SDS011;3556;53.500;10.176;2022-12-24T05:36:42;24.70;;;10.90;;
7029;SDS011;3556;53.500;10.176;2022-12-24T05:39:10;21.57;;;11.03;;
7029;SDS011;3556;53.500;10.176;2022-12-24T05:41:39;18.97;;;10.30;;
7029;SDS011;3556;53.500;10.176;2022-12-24T05:44:05;22.87;;;11.13;;
7029;SDS011;3556;53.500;10.176;2022-12-24T05:46:30;22.03;;;10.10;;
7029;SDS011;3556;53.500;10.176;2022-12-24T05:48:56;18.93;;;10.77;;
7029;SDS011;3556;53.500;10.176;2022-12-24T05:51:22;23.17;;;10.50;;
7029;SDS011;3556;53.500;10.176;2022-12-24T05:53:48;19.53;;;10.10;;
7029;SDS011;3556;53.500;10.176;2022-12-24T05:56:16;21.43;;;11.20;;
7029;SDS011;3556;53.500;10.176;2022-12-24T05:58:44;19.00;;;10.33;;
7029;SDS011;3556;53.500;10.176;2022-12-24T06:01:10;21.40;;;11.77;;
7029;SDS011;3556;53.500;10.176;2022-12-24T06:03:36;15.60;;;8.60;;
7029;SDS011;3556;53.500;10.176;2022-12-24T06:06:06;22.27;;;9.53;;
7029;SDS011;3556;53.500;10.176;2022-12-24T06:08:33;18.47;;;9.37;;
7029;SDS011;3556;53.500;10.176;2022-12-24T06:11:01;18.60;;;9.93;;
7029;SDS011;3556;53.500;10.176;2022-12-24T06:13:29;17.87;;;9.60;;
7029;SDS011;3556;53.500;10.176;2022-12-24T06:15:56;14.43;;;8.73;;
7029;SDS011;3556;53.500;10.176;2022-12-24T06:18:22;20.70;;;9.40;;
7029;SDS011;3556;53.500;10.176;2022-12-24T06:20:49;16.83;;;8.77;;
7029;SDS011;3556;53.500;10.176;2022-12-24T06:23:16;15.07;;;8.60;;
7029;SDS011;3556;53.500;10.176;2022-12-24T06:25:41;18.10;;;9.03;;
7029;SDS011;3556;53.500;10.176;2022-12-24T06:28:07;14.77;;;8.90;;
7029;SDS011;3556;53.500;10.176;2022-12-24T06:30:32;18.73;;;9.30;;
7029;SDS011;3556;53.500;10.176;2022-12-24T06:32:58;16.20;;;8.57;;
7029;SDS011;3556;53.500;10.176;2022-12-24T06:35:23;20.77;;;8.50;;
7029;SDS011;3556;53.500;10.176;2022-12-24T06:37:49;14.93;;;8.40;;
7029;SDS011;3556;53.500;10.176;2022-12-24T06:40:15;15.07;;;8.93;;
7029;SDS011;3556;53.500;10.176;2022-12-24T06:42:40;15.63;;;8.63;;
7029;SDS011;3556;53.500;10.176;2022-12-24T06:45:06;15.20;;;8.70;;
7029;SDS011;3556;53.500;10.176;2022-12-24T06:47:32;14.30;;;8.47;;
7029;SDS011;3556;53.500;10.176;2022-12-24T06:49:57;10.83;;;6.90;;
7029;SDS011;3556;53.500;10.176;2022-12-24T06:52:23;10.27;;;7.67;;
7029;SDS011;3556;53.500;10.176;2022-12-24T06:54:49;13.27;;;8.20;;
7029;SDS011;3556;53.500;10.176;2022-12-24T06:57:14;15.43;;;8.10;;
7029;SDS011;3556;53.500;10.176;2022-12-24T06:59:40;10.93;;;7.57;;
7029;SDS011;3556;53.500;10.176;2022-12-24T07:02:05;12.47;;;7.77;;
7029;SDS011;3556;53.500;10.176;2022-12-24T07:04:32;12.47;;;7.63;;
7029;SDS011;3556;53.500;10.176;2022-12-24T07:06:58;11.83;;;7.40;;
7029;SDS011;3556;53.500;10.176;2022-12-24T07:09:23;10.17;;;6.93;;
7029;SDS011;3556;53.500;10.176;2022-12-24T07:11:49;12.23;;;7.73;;
7029;SDS011;3556;53.500;10.176;2022-12-24T07:14:15;12.77;;;7.57;;
7029;SDS011;3556;53.500;10.176;2022-12-24T07:16:40;12.33;;;8.17;;
7029;SDS011;3556;53.500;10.176;2022-12-24T07:19:06;9.53;;;7.63;;
7029;SDS011;3556;53.500;10.176;2022-12-24T07:21:31;8.33;;;7.03;;
7029;SDS011;3556;53.500;10.176;2022-12-24T07:23:57;11.13;;;7.47;;
7029;SDS011;3556;53.500;10.176;2022-12-24T07:26:22;13.50;;;7.77;;
7029;SDS011;3556;53.500;10.176;2022-12-24T07:28:48;9.90;;;7.57;;
7029;SDS011;3556;53.500;10.176;2022-12-24T07:31:14;10.97;;;7.30;;
7029;SDS011;3556;53.500;10.176;2022-12-24T07:33:39;9.87;;;7.40;;
7029;SDS011;3556;53.500;10.176;2022-12-24T07:36:06;10.20;;;7.53;;
7029;SDS011;3556;53.500;10.176;2022-12-24T07:38:34;12.27;;;7.47;;
7029;SDS011;3556;53.500;10.176;2022-12-24T07:41:01;10.27;;;7.27;;
7029;SDS011;3556;53.500;10.176;2022-12-24T07:43:27;8.73;;;7.13;;
7029;SDS011;3556;53.500;10.176;2022-12-24T07:45:53;9.80;;;7.30;;
7029;SDS011;3556;53.500;10.176;2022-12-24T07:48:20;9.70;;;6.93;;
7029;SDS011;3556;53.500;10.176;2022-12-24T07:50:47;8.87;;;6.93;;
7029;SDS011;3556;53.500;10.176;2022-12-24T07:53:14;10.30;;;7.50;;
7029;SDS011;3556;53.500;10.176;2022-12-24T07:55:39;10.67;;;7.57;;
7029;SDS011;3556;53.500;10.176;2022-12-24T07:58:05;9.57;;;7.20;;
7029;SDS011;3556;53.500;10.176;2022-12-24T08:00:30;10.20;;;6.67;;
7029;SDS011;3556;53.500;10.176;2022-12-24T08:02:56;12.60;;;7.07;;
7029;SDS011;3556;53.500;10.176;2022-12-24T08:05:24;9.63;;;7.30;;
7029;SDS011;3556;53.500;10.176;2022-12-24T08:07:51;7.97;;;6.93;;
7029;SDS011;3556;53.500;10.176;2022-12-24T08:10:17;7.77;;;6.77;;
7029;SDS011;3556;53.500;10.176;2022-12-24T08:12:42;12.70;;;7.27;;
7029;SDS011;3556;53.500;10.176;2022-12-24T08:15:09;7.93;;;7.10;;
7029;SDS011;3556;53.500;10.176;2022-12-24T08:17:36;7.80;;;6.80;;
7029;SDS011;3556;53.500;10.176;2022-12-24T08:20:02;7.47;;;6.67;;
7029;SDS011;3556;53.500;10.176;2022-12-24T08:22:29;7.60;;;6.90;;
7029;SDS011;3556;53.500;10.176;2022-12-24T08:24:54;8.03;;;6.80;;
7029;SDS011;3556;53.500;10.176;2022-12-24T08:27:20;7.40;;;6.67;;
7029;SDS011;3556;53.500;10.176;2022-12-24T08:29:46;9.37;;;7.20;;
7029;SDS011;3556;53.500;10.176;2022-12-24T08:32:11;7.60;;;6.90;;
7029;SDS011;3556;53.500;10.176;2022-12-24T08:34:37;7.17;;;6.47;;
7029;SDS011;3556;53.500;10.176;2022-12-24T08:37:02;8.20;;;7.20;;
7029;SDS011;3556;53.500;10.176;2022-12-24T08:39:28;9.43;;;7.40;;
7029;SDS011;3556;53.500;10.176;2022-12-24T08:41:54;8.23;;;6.87;;
7029;SDS011;3556;53.500;10.176;2022-12-24T08:44:20;7.77;;;7.00;;
7029;SDS011;3556;53.500;10.176;2022-12-24T08:46:46;11.73;;;7.30;;
7029;SDS011;3556;53.500;10.176;2022-12-24T08:49:11;7.40;;;6.70;;
7029;SDS011;3556;53.500;10.176;2022-12-24T08:51:37;7.30;;;6.60;;
7029;SDS011;3556;53.500;10.176;2022-12-24T08:54:02;7.07;;;6.37;;
7029;SDS011;3556;53.500;10.176;2022-12-24T08:56:28;7.87;;;6.67;;
7029;SDS011;3556;53.500;10.176;2022-12-24T08:58:54;7.73;;;6.97;;
7029;SDS011;3556;53.500;10.176;2022-12-24T09:01:20;8.00;;;7.20;;
7029;SDS011;3556;53.500;10.176;2022-12-24T09:03:45;7.83;;;7.07;;
7029;SDS011;3556;53.500;10.176;2022-12-24T09:06:12;8.60;;;6.57;;
7029;SDS011;3556;53.500;10.176;2022-12-24T09:08:38;8.83;;;7.37;;
7029;SDS011;3556;53.500;10.176;2022-12-24T09:11:05;8.87;;;7.30;;
7029;SDS011;3556;53.500;10.176;2022-12-24T09:13:33;7.83;;;7.03;;
7029;SDS011;3556;53.500;10.176;2022-12-24T09:15:58;9.00;;;7.10;;
7029;SDS011;3556;53.500;10.176;2022-12-24T09:18:24;8.73;;;7.17;;
7029;SDS011;3556;53.500;10.176;2022-12-24T09:20:50;6.60;;;6.00;;
7029;SDS011;3556;53.500;10.176;2022-12-24T09:23:16;7.27;;;6.60;;
7029;SDS011;3556;53.500;10.176;2022-12-24T09:25:41;6.57;;;5.97;;
7029;SDS011;3556;53.500;10.176;2022-12-24T09:28:07;6.77;;;6.07;;
7029;SDS011;3556;53.500;10.176;2022-12-24T09:30:34;7.93;;;6.40;;
7029;SDS011;3556;53.500;10.176;2022-12-24T09:33:00;6.50;;;6.00;;
7029;SDS011;3556;53.500;10.176;2022-12-24T09:35:26;6.83;;;6.10;;
7029;SDS011;3556;53.500;10.176;2022-12-24T09:37:51;7.40;;;6.70;;
7029;SDS011;3556;53.500;10.176;2022-12-24T09:40:28;8.30;;;7.20;;
7029;SDS011;3556;53.500;10.176;2022-12-24T09:43:00;7.10;;;6.50;;
7029;SDS011;3556;53.500;10.176;2022-12-24T09:45:37;8.93;;;6.40;;
7029;SDS011;3556;53.500;10.176;2022-12-24T09:48:12;7.97;;;7.07;;
7029;SDS011;3556;53.500;10.176;2022-12-24T09:50:42;6.93;;;6.33;;
7029;SDS011;3556;53.500;10.176;2022-12-24T09:53:42;8.20;;;6.63;;
7029;SDS011;3556;53.500;10.176;2022-12-24T09:56:18;6.90;;;6.30;;
7029;SDS011;3556;53.500;10.176;2022-12-24T09:58:48;8.37;;;7.17;;
7029;SDS011;3556;53.500;10.176;2022-12-24T10:01:20;7.37;;;6.70;;
7029;SDS011;3556;53.500;10.176;2022-12-24T10:03:45;7.83;;;6.97;;
7029;SDS011;3556;53.500;10.176;2022-12-24T10:08:50;7.27;;;6.70;;
7029;SDS011;3556;53.500;10.176;2022-12-24T10:11:42;7.37;;;6.67;;
7029;SDS011;3556;53.500;10.176;2022-12-24T10:19:51;8.10;;;7.30;;
7029;SDS011;3556;53.500;10.176;2022-12-24T10:25:40;8.77;;;7.00;;
7029;SDS011;3556;53.500;10.176;2022-12-24T10:28:18;8.33;;;7.30;;
7029;SDS011;3556;53.500;10.176;2022-12-24T10:30:49;9.47;;;7.30;;
7029;SDS011;3556;53.500;10.176;2022-12-24T10:33:28;8.07;;;7.30;;
7029;SDS011;3556;53.500;10.176;2022-12-24T10:35:59;7.67;;;6.97;;
7029;SDS011;3556;53.500;10.176;2022-12-24T10:38:25;8.63;;;7.77;;
7029;SDS011;3556;53.500;10.176;2022-12-24T10:40:51;7.73;;;7.03;;
7029;SDS011;3556;53.500;10.176;2022-12-24T10:43:21;9.80;;;8.40;;
7029;SDS011;3556;53.500;10.176;2022-12-24T10:45:50;9.30;;;8.00;;
7029;SDS011;3556;53.500;10.176;2022-12-24T10:48:29;8.17;;;7.37;;
7029;SDS011;3556;53.500;10.176;2022-12-24T10:51:06;7.37;;;6.80;;
7029;SDS011;3556;53.500;10.176;2022-12-24T10:53:46;8.43;;;7.63;;
7029;SDS011;3556;53.500;10.176;2022-12-24T10:56:16;7.37;;;6.77;;
7029;SDS011;3556;53.500;10.176;2022-12-24T10:58:43;7.30;;;6.60;;
7029;SDS011;3556;53.500;10.176;2022-12-24T11:01:10;7.20;;;6.57;;
7029;SDS011;3556;53.500;10.176;2022-12-24T11:03:36;7.63;;;6.83;;
7029;SDS011;3556;53.500;10.176;2022-12-24T11:08:34;5.90;;;5.37;;
7029;SDS011;3556;53.500;10.176;2022-12-24T11:11:03;6.83;;;6.33;;
7029;SDS011;3556;53.500;10.176;2022-12-24T11:13:31;6.77;;;6.20;;
7029;SDS011;3556;53.500;10.176;2022-12-24T11:16:01;6.90;;;6.30;;
7029;SDS011;3556;53.500;10.176;2022-12-24T11:18:31;7.30;;;6.60;;
7029;SDS011;3556;53.500;10.176;2022-12-24T11:20:59;10.50;;;6.97;;
7029;SDS011;3556;53.500;10.176;2022-12-24T11:23:25;7.40;;;6.80;;
7029;SDS011;3556;53.500;10.176;2022-12-24T11:25:53;10.90;;;7.00;;
7029;SDS011;3556;53.500;10.176;2022-12-24T11:31:01;7.50;;;6.80;;
7029;SDS011;3556;53.500;10.176;2022-12-24T11:33:29;7.93;;;7.23;;
7029;SDS011;3556;53.500;10.176;2022-12-24T11:35:58;7.70;;;7.03;;
7029;SDS011;3556;53.500;10.176;2022-12-24T11:38:27;9.07;;;8.30;;
7029;SDS011;3556;53.500;10.176;2022-12-24T11:41:10;10.77;;;9.70;;
7029;SDS011;3556;53.500;10.176;2022-12-24T11:43:38;9.87;;;8.80;;
7029;SDS011;3556;53.500;10.176;2022-12-24T11:46:17;12.83;;;9.40;;
7029;SDS011;3556;53.500;10.176;2022-12-24T11:48:42;7.33;;;6.70;;
7029;SDS011;3556;53.500;10.176;2022-12-24T11:51:22;8.67;;;7.90;;
7029;SDS011;3556;53.500;10.176;2022-12-24T11:53:51;8.40;;;7.60;;
7029;SDS011;3556;53.500;10.176;2022-12-24T11:56:35;13.00;;;8.67;;
7029;SDS011;3556;53.500;10.176;2022-12-24T11:59:08;6.83;;;6.33;;
7029;SDS011;3556;53.500;10.176;2022-12-24T12:01:41;8.33;;;7.60;;
7029;SDS011;3556;53.500;10.176;2022-12-24T12:04:33;11.03;;;8.77;;
7029;SDS011;3556;53.500;10.176;2022-12-24T12:07:02;12.00;;;8.90;;
7029;SDS011;3556;53.500;10.176;2022-12-24T12:09:49;11.97;;;9.03;;
7029;SDS011;3556;53.500;10.176;2022-12-24T12:12:17;8.33;;;7.63;;
7029;SDS011;3556;53.500;10.176;2022-12-24T12:14:49;9.80;;;8.27;;
7029;SDS011;3556;53.500;10.176;2022-12-24T12:20:10;10.30;;;9.30;;
7029;SDS011;3556;53.500;10.176;2022-12-24T12:22:52;11.70;;;8.80;;
7029;SDS011;3556;53.500;10.176;2022-12-24T12:33:49;11.03;;;9.60;;
7029;SDS011;3556;53.500;10.176;2022-12-24T12:36:32;16.07;;;9.80;;
7029;SDS011;3556;53.500;10.176;2022-12-24T12:39:09;13.93;;;9.53;;
7029;SDS011;3556;53.500;10.176;2022-12-24T12:49:47;11.27;;;9.80;;
7029;SDS011;3556;53.500;10.176;2022-12-24T12:52:45;17.37;;;9.47;;
7029;SDS011;3556;53.500;10.176;2022-12-24T12:57:49;9.93;;;8.93;;
7029;SDS011;3556;53.500;10.176;2022-12-24T13:00:18;14.60;;;10.40;;
7029;SDS011;3556;53.500;10.176;2022-12-24T13:21:54;12.10;;;10.90;;
7029;SDS011;3556;53.500;10.176;2022-12-24T13:24:21;15.47;;;11.60;;
7029;SDS011;3556;53.500;10.176;2022-12-24T13:27:05;11.33;;;10.13;;
7029;SDS011;3556;53.500;10.176;2022-12-24T13:34:49;14.20;;;11.07;;
7029;SDS011;3556;53.500;10.176;2022-12-24T13:37:31;16.20;;;10.93;;
7029;SDS011;3556;53.500;10.176;2022-12-24T13:50:34;22.60;;;12.27;;
7029;SDS011;3556;53.500;10.176;2022-12-24T13:56:27;21.47;;;11.37;;
7029;SDS011;3556;53.500;10.176;2022-12-24T13:59:08;15.50;;;10.50;;
7029;SDS011;3556;53.500;10.176;2022-12-24T14:01:38;18.10;;;10.57;;
7029;SDS011;3556;53.500;10.176;2022-12-24T14:04:06;14.83;;;11.50;;
7029;SDS011;3556;53.500;10.176;2022-12-24T14:06:38;16.53;;;10.07;;
7029;SDS011;3556;53.500;10.176;2022-12-24T14:09:07;18.00;;;11.37;;
7029;SDS011;3556;53.500;10.176;2022-12-24T14:14:33;16.00;;;11.27;;
7029;SDS011;3556;53.500;10.176;2022-12-24T14:19:42;17.27;;;12.30;;
7029;SDS011;3556;53.500;10.176;2022-12-24T14:24:42;18.10;;;13.57;;
7029;SDS011;3556;53.500;10.176;2022-12-24T14:27:15;20.03;;;12.83;;
7029;SDS011;3556;53.500;10.176;2022-12-24T14:29:45;19.33;;;13.10;;
7029;SDS011;3556;53.500;10.176;2022-12-24T14:32:16;21.73;;;13.60;;
7029;SDS011;3556;53.500;10.176;2022-12-24T14:34:42;19.30;;;13.37;;
7029;SDS011;3556;53.500;10.176;2022-12-24T14:37:08;22.80;;;14.93;;
7029;SDS011;3556;53.500;10.176;2022-12-24T14:39:38;20.20;;;13.47;;
7029;SDS011;3556;53.500;10.176;2022-12-24T14:42:22;24.47;;;13.80;;
7029;SDS011;3556;53.500;10.176;2022-12-24T14:53:00;19.43;;;12.47;;
7029;SDS011;3556;53.500;10.176;2022-12-24T14:55:39;24.63;;;14.07;;
7029;SDS011;3556;53.500;10.176;2022-12-24T14:58:26;20.03;;;13.30;;
7029;SDS011;3556;53.500;10.176;2022-12-24T15:00:55;25.27;;;13.50;;
7029;SDS011;3556;53.500;10.176;2022-12-24T15:03:26;20.40;;;13.40;;
7029;SDS011;3556;53.500;10.176;2022-12-24T15:05:55;20.43;;;13.33;;
7029;SDS011;3556;53.500;10.176;2022-12-24T15:08:31;20.93;;;13.80;;
7029;SDS011;3556;53.500;10.176;2022-12-24T15:11:03;18.33;;;11.67;;
7029;SDS011;3556;53.500;10.176;2022-12-24T15:16:05;22.27;;;13.57;;
7029;SDS011;3556;53.500;10.176;2022-12-24T15:18:34;23.20;;;15.67;;
7029;SDS011;3556;53.500;10.176;2022-12-24T15:21:04;42.67;;;22.60;;
7029;SDS011;3556;53.500;10.176;2022-12-24T15:23:36;30.30;;;17.87;;
7029;SDS011;3556;53.500;10.176;2022-12-24T15:26:20;24.20;;;14.60;;
7029;SDS011;3556;53.500;10.176;2022-12-24T15:28:59;21.13;;;13.80;;
7029;SDS011;3556;53.500;10.176;2022-12-24T15:31:26;21.80;;;13.43;;
7029;SDS011;3556;53.500;10.176;2022-12-24T15:33:53;27.83;;;14.53;;
7029;SDS011;3556;53.500;10.176;2022-12-24T15:36:33;23.77;;;13.90;;
7029;SDS011;3556;53.500;10.176;2022-12-24T15:39:04;23.03;;;13.17;;
7029;SDS011;3556;53.500;10.176;2022-12-24T15:41:39;32.83;;;14.67;;
7029;SDS011;3556;53.500;10.176;2022-12-24T15:44:26;26.37;;;14.10;;
7029;SDS011;3556;53.500;10.176;2022-12-24T15:47:00;25.50;;;13.10;;
7029;SDS011;3556;53.500;10.176;2022-12-24T15:49:28;25.97;;;13.77;;
7029;SDS011;3556;53.500;10.176;2022-12-24T15:52:09;27.20;;;14.07;;
7029;SDS011;3556;53.500;10.176;2022-12-24T15:54:42;25.50;;;14.43;;
7029;SDS011;3556;53.500;10.176;2022-12-24T15:57:13;36.13;;;14.77;;
7029;SDS011;3556;53.500;10.176;2022-12-24T15:59:49;25.20;;;14.63;;
7029;SDS011;3556;53.500;10.176;2022-12-24T16:07:58;21.90;;;13.77;;
7029;SDS011;3556;53.500;10.176;2022-12-24T16:10:33;22.30;;;13.73;;
7029;SDS011;3556;53.500;10.176;2022-12-24T16:13:15;39.03;;;16.60;;
7029;SDS011;3556;53.500;10.176;2022-12-24T16:15:48;31.33;;;13.83;;
7029;SDS011;3556;53.500;10.176;2022-12-24T16:18:17;34.90;;;17.00;;
7029;SDS011;3556;53.500;10.176;2022-12-24T16:20:48;29.40;;;17.10;;
7029;SDS011;3556;53.500;10.176;2022-12-24T16:23:16;22.63;;;13.97;;
7029;SDS011;3556;53.500;10.176;2022-12-24T16:25:43;31.23;;;15.90;;
7029;SDS011;3556;53.500;10.176;2022-12-24T16:28:12;40.27;;;16.50;;
7029;SDS011;3556;53.500;10.176;2022-12-24T16:30:38;32.23;;;16.57;;
7029;SDS011;3556;53.500;10.176;2022-12-24T16:33:04;35.80;;;16.10;;
7029;SDS011;3556;53.500;10.176;2022-12-24T16:35:31;43.90;;;16.60;;
7029;SDS011;3556;53.500;10.176;2022-12-24T16:38:02;59.20;;;25.10;;
7029;SDS011;3556;53.500;10.176;2022-12-24T16:40:28;43.90;;;20.30;;
7029;SDS011;3556;53.500;10.176;2022-12-24T16:42:57;42.03;;;18.13;;
7029;SDS011;3556;53.500;10.176;2022-12-24T16:45:41;36.77;;;17.37;;
7029;SDS011;3556;53.500;10.176;2022-12-24T16:48:08;38.27;;;17.40;;
7029;SDS011;3556;53.500;10.176;2022-12-24T16:50:41;36.40;;;15.63;;
7029;SDS011;3556;53.500;10.176;2022-12-24T16:53:07;42.43;;;14.23;;
7029;SDS011;3556;53.500;10.176;2022-12-24T16:55:36;44.77;;;12.50;;
7029;SDS011;3556;53.500;10.176;2022-12-24T16:58:02;54.10;;;12.93;;
7029;SDS011;3556;53.500;10.176;2022-12-24T17:00:28;42.13;;;13.00;;
7029;SDS011;3556;53.500;10.176;2022-12-24T17:02:53;40.20;;;15.30;;
7029;SDS011;3556;53.500;10.176;2022-12-24T17:05:19;47.83;;;15.47;;
7029;SDS011;3556;53.500;10.176;2022-12-24T17:07:47;55.03;;;21.03;;